Historyczne dane pomiarowe

Dodano dane terminowe – wersja testowa.

Dane z okresu 1951-2019

Wersja bazy: 1.34 [2019-03-16, lista zmian], aktualizacja planowana na 2019-04-15

Dane meteo z obszaru Polski uzyskane na podstawie danych udostępnionych przez Instytut Meteorologii i Gospodarki Wodnej – Państwowy Instytut Badawczy.

 

Wybierz Datę:    

       

TemperaturaWilgotnośćWiatrCiśnienieOpadyŚniegCzas trwania zjawisk
 Stacja t tx tn tng RH VA  wxwx mslp ppp RRR   cm mm wxwxwxwxwxwxwx
1958-01-17 3.9 4.9 1.5 1.0 91.3- 8.0 4.3---- 0.4------------
1958-01-18 3.0 4.8 2.1 2.5 77.3- 7.7 4.7---- 0.0------------
1958-01-19 2.3 6.6 0.3 -2.4 80.0- 8.0 4.7---- 1.9------------
1958-01-20 -0.3 2.2 -3.4 -2.7 76.3- 5.3 1.7---- 0.2------------
1958-01-21 -1.6 0.3 -2.8 -3.8 89.3- 7.7 1.7---- 0.4-- 1---------
1958-01-22 -1.1 1.9 -5.6 -9.7 69.3- 4.7 3.3---- 0.0-- 1---------
1958-01-23 -2.6 0.5 -5.8 -7.4 77.0- 4.3 2.3---- 0.0------------
1958-01-24 -3.2 0.9 -7.1 -8.9 80.5- 3.3 1.7---- 0.0------------
1958-01-25 -6.6 -1.7 -8.6-11.6 88.5- 1.3 0.3---- 0.0------------
1958-01-26 -5.8 -0.8-10.0-12.9 81.0- 0.0 3.3---- 0.0------------
1958-01-27 -4.7 1.9-10.5-11.8 73.0- 0.0 3.3---- 0.0------------
1958-01-28 -3.3 6.6 -9.1-11.6 65.8- 1.3 2.7---- 0.0------------
1958-01-29 -2.8 5.6 -9.9-12.9 70.8- 0.0 0.3---- 0.0------------
1958-01-30 0.8 4.7 -7.5-11.8 76.8- 2.7 3.0---- 0.0------------
1958-01-31 1.3 3.7 0.5 1.6 96.5- 8.0 4.0---- 0.0------------
1958-02-01 -1.2 0.9 -2.3 -0.4 99.0- 8.0 1.3---- 0.0------------
1958-02-02 2.4 4.4 -3.9 -5.0 79.0- 7.7 5.0---- 0.0------------
1958-02-03 2.5 5.4 0.7 2.1 73.3- 5.3 7.0---- 0.0------------
1958-02-04 1.9 3.2 0.8 -0.5 69.3- 7.7 5.3---- 1.6------------
1958-02-05 5.7 7.1 0.6 -0.3 78.5- 8.0 8.0---- 1.7------------
1958-02-06 0.2 7.1 -1.7 1.6 73.3- 6.0 5.7---- 0.2------------
1958-02-07 -2.2 0.9 -3.3 -5.0 86.3- 5.3 3.0---- 0.0-- 1---------
1958-02-08 0.6 2.5 -4.4 -7.6 79.3- 7.3 5.0---- 0.4-- 1---------
1958-02-09 7.5 11.8 1.8 0.9 69.3- 3.7 4.0---- 0.0------------
1958-02-10 7.9 15.0 1.8 -1.3 75.5- 3.0 2.0---- 0.0------------
1958-02-11 7.1 14.9 0.0 -3.6 80.0- 3.7 1.7---- 0.0------------
1958-02-12 9.5 13.7 5.6 3.7 66.8- 4.7 2.3---- 0.5------------
1958-02-13 6.7 12.8 3.2 6.4 87.5- 3.3 2.7---- 2.2------------
1958-02-14 10.5 16.2 0.5 -2.6 79.3- 5.0 3.0---- 0.0------------
1958-02-15 10.4 13.9 9.0 0.5 84.3- 7.0 5.0---- 3.3------------
300.8 ms

 

Źródłem pochodzenia danych jest Instytut Meteorologii i Gospodarki Wodnej – Państwowy Instytut Badawczy. Dane Instytutu Meteorologii i Gospodarki Wodnej – Państwowego Instytutu Badawczego zostały przetworzone.

Dane źródłowe można odnaleźć na stronie https://dane.imgw.pl